sensor_id;sensor_type;location;lat;lon;timestamp;P1;durP1;ratioP1;P2;durP2;ratioP2
12122;SDS011;6125;59.628;17.852;2023-09-19T00:00:15;6.37;;;4.07;;
12122;SDS011;6125;59.628;17.852;2023-09-19T00:02:44;11.47;;;4.47;;
12122;SDS011;6125;59.628;17.852;2023-09-19T00:05:12;7.20;;;4.20;;
12122;SDS011;6125;59.628;17.852;2023-09-19T00:07:40;8.63;;;4.27;;
12122;SDS011;6125;59.628;17.852;2023-09-19T00:10:07;6.10;;;3.63;;
12122;SDS011;6125;59.628;17.852;2023-09-19T00:12:35;6.00;;;4.57;;
12122;SDS011;6125;59.628;17.852;2023-09-19T00:15:04;8.57;;;4.27;;
12122;SDS011;6125;59.628;17.852;2023-09-19T00:17:31;9.07;;;4.60;;
12122;SDS011;6125;59.628;17.852;2023-09-19T00:20:00;7.47;;;4.50;;
12122;SDS011;6125;59.628;17.852;2023-09-19T00:22:39;10.23;;;4.13;;
12122;SDS011;6125;59.628;17.852;2023-09-19T00:25:07;7.97;;;5.37;;
12122;SDS011;6125;59.628;17.852;2023-09-19T00:27:37;11.10;;;5.30;;
12122;SDS011;6125;59.628;17.852;2023-09-19T00:30:08;8.47;;;4.87;;
12122;SDS011;6125;59.628;17.852;2023-09-19T00:32:41;6.93;;;4.87;;
12122;SDS011;6125;59.628;17.852;2023-09-19T00:35:09;11.77;;;4.90;;
12122;SDS011;6125;59.628;17.852;2023-09-19T00:37:37;6.00;;;4.50;;
12122;SDS011;6125;59.628;17.852;2023-09-19T00:40:05;8.47;;;5.60;;
12122;SDS011;6125;59.628;17.852;2023-09-19T00:42:36;10.53;;;5.10;;
12122;SDS011;6125;59.628;17.852;2023-09-19T00:45:04;9.60;;;5.57;;
12122;SDS011;6125;59.628;17.852;2023-09-19T00:47:35;8.20;;;5.40;;
12122;SDS011;6125;59.628;17.852;2023-09-19T00:50:03;11.83;;;5.73;;
12122;SDS011;6125;59.628;17.852;2023-09-19T00:52:33;9.90;;;5.20;;
12122;SDS011;6125;59.628;17.852;2023-09-19T00:55:04;11.40;;;5.63;;
12122;SDS011;6125;59.628;17.852;2023-09-19T00:57:32;9.83;;;5.47;;
12122;SDS011;6125;59.628;17.852;2023-09-19T01:00:00;10.80;;;5.80;;
12122;SDS011;6125;59.628;17.852;2023-09-19T01:02:30;8.27;;;5.77;;
12122;SDS011;6125;59.628;17.852;2023-09-19T01:04:59;12.40;;;5.60;;
12122;SDS011;6125;59.628;17.852;2023-09-19T01:07:29;9.50;;;6.47;;
12122;SDS011;6125;59.628;17.852;2023-09-19T01:09:58;11.87;;;6.23;;
12122;SDS011;6125;59.628;17.852;2023-09-19T01:12:28;10.27;;;5.83;;
12122;SDS011;6125;59.628;17.852;2023-09-19T01:15:02;9.20;;;6.30;;
12122;SDS011;6125;59.628;17.852;2023-09-19T01:17:38;11.10;;;6.40;;
12122;SDS011;6125;59.628;17.852;2023-09-19T01:20:21;10.97;;;6.50;;
12122;SDS011;6125;59.628;17.852;2023-09-19T01:23:09;11.33;;;6.50;;
12122;SDS011;6125;59.628;17.852;2023-09-19T01:26:03;10.97;;;6.50;;
12122;SDS011;6125;59.628;17.852;2023-09-19T01:28:39;10.93;;;6.60;;
12122;SDS011;6125;59.628;17.852;2023-09-19T01:31:21;12.57;;;7.00;;
12122;SDS011;6125;59.628;17.852;2023-09-19T01:33:56;10.17;;;6.67;;
12122;SDS011;6125;59.628;17.852;2023-09-19T01:36:29;14.23;;;7.17;;
12122;SDS011;6125;59.628;17.852;2023-09-19T01:38:59;10.73;;;6.67;;
12122;SDS011;6125;59.628;17.852;2023-09-19T01:41:34;10.47;;;6.90;;
12122;SDS011;6125;59.628;17.852;2023-09-19T01:44:24;11.57;;;6.90;;
12122;SDS011;6125;59.628;17.852;2023-09-19T01:47:00;12.03;;;7.80;;
12122;SDS011;6125;59.628;17.852;2023-09-19T01:49:36;14.20;;;7.73;;
12122;SDS011;6125;59.628;17.852;2023-09-19T01:52:12;14.97;;;7.57;;
12122;SDS011;6125;59.628;17.852;2023-09-19T01:54:41;12.97;;;7.70;;
12122;SDS011;6125;59.628;17.852;2023-09-19T01:57:17;12.70;;;7.33;;
12122;SDS011;6125;59.628;17.852;2023-09-19T01:59:54;11.80;;;7.80;;
12122;SDS011;6125;59.628;17.852;2023-09-19T02:02:32;12.57;;;8.10;;
12122;SDS011;6125;59.628;17.852;2023-09-19T02:05:01;11.60;;;8.43;;
12122;SDS011;6125;59.628;17.852;2023-09-19T02:07:29;14.83;;;7.90;;
12122;SDS011;6125;59.628;17.852;2023-09-19T02:09:56;13.50;;;7.90;;
12122;SDS011;6125;59.628;17.852;2023-09-19T02:12:24;15.90;;;8.60;;
12122;SDS011;6125;59.628;17.852;2023-09-19T02:14:51;15.07;;;9.67;;
12122;SDS011;6125;59.628;17.852;2023-09-19T02:17:18;16.73;;;9.13;;
12122;SDS011;6125;59.628;17.852;2023-09-19T02:19:47;13.17;;;8.63;;
12122;SDS011;6125;59.628;17.852;2023-09-19T02:22:14;11.17;;;8.57;;
12122;SDS011;6125;59.628;17.852;2023-09-19T02:24:41;14.30;;;8.90;;
12122;SDS011;6125;59.628;17.852;2023-09-19T02:27:08;17.93;;;10.03;;
12122;SDS011;6125;59.628;17.852;2023-09-19T02:29:37;17.17;;;9.87;;
12122;SDS011;6125;59.628;17.852;2023-09-19T02:32:04;18.03;;;9.50;;
12122;SDS011;6125;59.628;17.852;2023-09-19T02:34:32;17.63;;;9.57;;
12122;SDS011;6125;59.628;17.852;2023-09-19T02:37:09;17.57;;;8.93;;
12122;SDS011;6125;59.628;17.852;2023-09-19T02:39:38;19.10;;;9.50;;
12122;SDS011;6125;59.628;17.852;2023-09-19T02:42:05;12.37;;;9.10;;
12122;SDS011;6125;59.628;17.852;2023-09-19T02:44:32;18.13;;;9.83;;
12122;SDS011;6125;59.628;17.852;2023-09-19T02:47:00;17.53;;;9.83;;
12122;SDS011;6125;59.628;17.852;2023-09-19T02:49:27;16.00;;;9.90;;
12122;SDS011;6125;59.628;17.852;2023-09-19T02:51:54;20.37;;;9.70;;
12122;SDS011;6125;59.628;17.852;2023-09-19T02:54:25;18.40;;;10.23;;
12122;SDS011;6125;59.628;17.852;2023-09-19T02:56:52;15.73;;;10.50;;
12122;SDS011;6125;59.628;17.852;2023-09-19T02:59:19;19.57;;;10.63;;
12122;SDS011;6125;59.628;17.852;2023-09-19T03:01:46;21.40;;;11.10;;
12122;SDS011;6125;59.628;17.852;2023-09-19T03:04:14;21.50;;;11.00;;
12122;SDS011;6125;59.628;17.852;2023-09-19T03:06:44;16.43;;;10.23;;
12122;SDS011;6125;59.628;17.852;2023-09-19T03:09:16;16.90;;;10.20;;
12122;SDS011;6125;59.628;17.852;2023-09-19T03:11:45;20.70;;;11.30;;
12122;SDS011;6125;59.628;17.852;2023-09-19T03:14:12;17.67;;;10.93;;
12122;SDS011;6125;59.628;17.852;2023-09-19T03:16:40;19.30;;;11.30;;
12122;SDS011;6125;59.628;17.852;2023-09-19T03:19:09;16.10;;;10.67;;
12122;SDS011;6125;59.628;17.852;2023-09-19T03:21:37;17.53;;;12.13;;
12122;SDS011;6125;59.628;17.852;2023-09-19T03:24:04;21.27;;;12.23;;
12122;SDS011;6125;59.628;17.852;2023-09-19T03:26:32;20.33;;;11.90;;
12122;SDS011;6125;59.628;17.852;2023-09-19T03:29:00;19.63;;;12.10;;
12122;SDS011;6125;59.628;17.852;2023-09-19T03:31:33;21.27;;;11.97;;
12122;SDS011;6125;59.628;17.852;2023-09-19T03:34:01;26.27;;;12.17;;
12122;SDS011;6125;59.628;17.852;2023-09-19T03:36:29;17.70;;;11.80;;
12122;SDS011;6125;59.628;17.852;2023-09-19T03:38:56;28.10;;;11.63;;
12122;SDS011;6125;59.628;17.852;2023-09-19T03:41:23;21.63;;;12.87;;
12122;SDS011;6125;59.628;17.852;2023-09-19T03:43:50;19.47;;;12.53;;
12122;SDS011;6125;59.628;17.852;2023-09-19T03:46:19;17.07;;;11.87;;
12122;SDS011;6125;59.628;17.852;2023-09-19T03:48:46;23.83;;;12.37;;
12122;SDS011;6125;59.628;17.852;2023-09-19T03:51:13;20.13;;;13.20;;
12122;SDS011;6125;59.628;17.852;2023-09-19T03:53:40;22.07;;;14.03;;
12122;SDS011;6125;59.628;17.852;2023-09-19T03:56:07;18.73;;;13.20;;
12122;SDS011;6125;59.628;17.852;2023-09-19T03:58:35;24.70;;;13.17;;
12122;SDS011;6125;59.628;17.852;2023-09-19T04:01:04;22.07;;;12.97;;
12122;SDS011;6125;59.628;17.852;2023-09-19T04:03:34;25.67;;;13.67;;
12122;SDS011;6125;59.628;17.852;2023-09-19T04:06:11;18.93;;;13.37;;
12122;SDS011;6125;59.628;17.852;2023-09-19T04:08:38;22.70;;;13.33;;
12122;SDS011;6125;59.628;17.852;2023-09-19T04:11:05;17.77;;;14.00;;
12122;SDS011;6125;59.628;17.852;2023-09-19T04:13:33;20.17;;;13.90;;
12122;SDS011;6125;59.628;17.852;2023-09-19T04:16:00;27.67;;;14.27;;
12122;SDS011;6125;59.628;17.852;2023-09-19T04:18:28;23.17;;;14.17;;
12122;SDS011;6125;59.628;17.852;2023-09-19T04:20:59;20.07;;;14.17;;
12122;SDS011;6125;59.628;17.852;2023-09-19T04:23:29;19.67;;;14.37;;
12122;SDS011;6125;59.628;17.852;2023-09-19T04:25:56;20.13;;;14.03;;
12122;SDS011;6125;59.628;17.852;2023-09-19T04:28:23;19.50;;;13.73;;
12122;SDS011;6125;59.628;17.852;2023-09-19T04:30:52;28.53;;;13.97;;
12122;SDS011;6125;59.628;17.852;2023-09-19T04:33:20;22.30;;;13.87;;
12122;SDS011;6125;59.628;17.852;2023-09-19T04:35:48;19.63;;;13.97;;
12122;SDS011;6125;59.628;17.852;2023-09-19T04:38:17;25.97;;;15.67;;
12122;SDS011;6125;59.628;17.852;2023-09-19T04:40:45;21.33;;;14.60;;
12122;SDS011;6125;59.628;17.852;2023-09-19T04:43:12;21.70;;;14.90;;
12122;SDS011;6125;59.628;17.852;2023-09-19T04:45:40;28.00;;;14.63;;
12122;SDS011;6125;59.628;17.852;2023-09-19T04:48:07;19.40;;;13.57;;
12122;SDS011;6125;59.628;17.852;2023-09-19T04:50:36;22.57;;;15.13;;
12122;SDS011;6125;59.628;17.852;2023-09-19T04:53:03;22.70;;;15.53;;
12122;SDS011;6125;59.628;17.852;2023-09-19T04:55:33;21.60;;;14.00;;
12122;SDS011;6125;59.628;17.852;2023-09-19T04:58:01;26.20;;;15.07;;
12122;SDS011;6125;59.628;17.852;2023-09-19T05:00:29;28.53;;;16.03;;
12122;SDS011;6125;59.628;17.852;2023-09-19T05:03:00;22.67;;;15.03;;
12122;SDS011;6125;59.628;17.852;2023-09-19T05:05:29;23.10;;;16.00;;
12122;SDS011;6125;59.628;17.852;2023-09-19T05:07:56;27.80;;;15.53;;
12122;SDS011;6125;59.628;17.852;2023-09-19T05:10:24;25.60;;;14.70;;
12122;SDS011;6125;59.628;17.852;2023-09-19T05:12:53;19.70;;;14.87;;
12122;SDS011;6125;59.628;17.852;2023-09-19T05:15:21;23.73;;;15.20;;
12122;SDS011;6125;59.628;17.852;2023-09-19T05:17:48;22.03;;;14.43;;
12122;SDS011;6125;59.628;17.852;2023-09-19T05:20:17;24.80;;;15.50;;
12122;SDS011;6125;59.628;17.852;2023-09-19T05:22:50;23.73;;;15.90;;
12122;SDS011;6125;59.628;17.852;2023-09-19T05:25:33;21.20;;;16.00;;
12122;SDS011;6125;59.628;17.852;2023-09-19T05:28:04;23.60;;;15.80;;
12122;SDS011;6125;59.628;17.852;2023-09-19T05:30:32;22.80;;;16.10;;
12122;SDS011;6125;59.628;17.852;2023-09-19T05:33:01;25.43;;;16.37;;
12122;SDS011;6125;59.628;17.852;2023-09-19T05:35:29;24.20;;;15.80;;
12122;SDS011;6125;59.628;17.852;2023-09-19T05:37:57;22.00;;;15.40;;
12122;SDS011;6125;59.628;17.852;2023-09-19T05:40:25;21.07;;;14.43;;
12122;SDS011;6125;59.628;17.852;2023-09-19T05:42:52;24.77;;;15.70;;
12122;SDS011;6125;59.628;17.852;2023-09-19T05:45:20;20.97;;;14.80;;
12122;SDS011;6125;59.628;17.852;2023-09-19T05:47:48;24.47;;;14.40;;
12122;SDS011;6125;59.628;17.852;2023-09-19T05:50:16;24.33;;;15.83;;
12122;SDS011;6125;59.628;17.852;2023-09-19T05:52:50;22.17;;;14.83;;
12122;SDS011;6125;59.628;17.852;2023-09-19T05:55:18;21.73;;;14.63;;
12122;SDS011;6125;59.628;17.852;2023-09-19T05:57:49;18.43;;;14.10;;
12122;SDS011;6125;59.628;17.852;2023-09-19T06:00:17;18.10;;;13.97;;
12122;SDS011;6125;59.628;17.852;2023-09-19T06:02:50;20.27;;;13.67;;
12122;SDS011;6125;59.628;17.852;2023-09-19T06:05:17;21.13;;;13.80;;
12122;SDS011;6125;59.628;17.852;2023-09-19T06:07:45;17.43;;;14.20;;
12122;SDS011;6125;59.628;17.852;2023-09-19T06:10:12;20.03;;;13.10;;
12122;SDS011;6125;59.628;17.852;2023-09-19T06:12:40;24.43;;;13.63;;
12122;SDS011;6125;59.628;17.852;2023-09-19T06:15:08;17.57;;;13.20;;
12122;SDS011;6125;59.628;17.852;2023-09-19T06:17:40;21.40;;;13.83;;
12122;SDS011;6125;59.628;17.852;2023-09-19T06:20:09;20.63;;;14.00;;
12122;SDS011;6125;59.628;17.852;2023-09-19T06:22:39;20.13;;;14.03;;
12122;SDS011;6125;59.628;17.852;2023-09-19T06:25:08;18.67;;;13.47;;
12122;SDS011;6125;59.628;17.852;2023-09-19T06:27:37;22.30;;;13.27;;
12122;SDS011;6125;59.628;17.852;2023-09-19T06:30:06;20.50;;;13.27;;
12122;SDS011;6125;59.628;17.852;2023-09-19T06:32:34;19.57;;;13.73;;
12122;SDS011;6125;59.628;17.852;2023-09-19T06:35:01;20.00;;;14.13;;
12122;SDS011;6125;59.628;17.852;2023-09-19T06:37:34;15.77;;;13.47;;
12122;SDS011;6125;59.628;17.852;2023-09-19T06:40:03;19.83;;;15.10;;
12122;SDS011;6125;59.628;17.852;2023-09-19T06:42:32;18.57;;;14.30;;
12122;SDS011;6125;59.628;17.852;2023-09-19T06:44:59;20.50;;;15.13;;
12122;SDS011;6125;59.628;17.852;2023-09-19T06:47:26;18.80;;;13.77;;
12122;SDS011;6125;59.628;17.852;2023-09-19T06:49:53;23.17;;;15.57;;
12122;SDS011;6125;59.628;17.852;2023-09-19T06:52:20;19.47;;;14.20;;
12122;SDS011;6125;59.628;17.852;2023-09-19T06:54:48;22.27;;;14.77;;
12122;SDS011;6125;59.628;17.852;2023-09-19T06:57:17;22.13;;;14.77;;
12122;SDS011;6125;59.628;17.852;2023-09-19T06:59:45;19.60;;;14.00;;
12122;SDS011;6125;59.628;17.852;2023-09-19T07:02:12;19.03;;;14.37;;
12122;SDS011;6125;59.628;17.852;2023-09-19T07:04:39;17.43;;;13.77;;
12122;SDS011;6125;59.628;17.852;2023-09-19T07:07:06;20.17;;;14.70;;
12122;SDS011;6125;59.628;17.852;2023-09-19T07:09:35;23.77;;;14.53;;
12122;SDS011;6125;59.628;17.852;2023-09-19T07:12:04;22.17;;;14.77;;
12122;SDS011;6125;59.628;17.852;2023-09-19T07:14:31;18.20;;;14.30;;
12122;SDS011;6125;59.628;17.852;2023-09-19T07:16:58;21.03;;;13.67;;
12122;SDS011;6125;59.628;17.852;2023-09-19T07:19:26;20.60;;;13.90;;
12122;SDS011;6125;59.628;17.852;2023-09-19T07:21:55;19.67;;;14.23;;
12122;SDS011;6125;59.628;17.852;2023-09-19T07:24:24;22.13;;;13.30;;
12122;SDS011;6125;59.628;17.852;2023-09-19T07:26:53;18.20;;;13.67;;
12122;SDS011;6125;59.628;17.852;2023-09-19T07:29:22;19.43;;;12.83;;
12122;SDS011;6125;59.628;17.852;2023-09-19T07:31:51;18.70;;;13.10;;
12122;SDS011;6125;59.628;17.852;2023-09-19T07:34:19;19.70;;;14.13;;
12122;SDS011;6125;59.628;17.852;2023-09-19T07:36:48;19.43;;;13.63;;
12122;SDS011;6125;59.628;17.852;2023-09-19T07:39:15;19.03;;;12.90;;
12122;SDS011;6125;59.628;17.852;2023-09-19T07:41:42;19.50;;;13.50;;
12122;SDS011;6125;59.628;17.852;2023-09-19T07:44:09;17.10;;;13.80;;
12122;SDS011;6125;59.628;17.852;2023-09-19T07:46:37;17.83;;;13.43;;
12122;SDS011;6125;59.628;17.852;2023-09-19T07:49:04;20.80;;;12.87;;
12122;SDS011;6125;59.628;17.852;2023-09-19T07:51:31;20.17;;;12.90;;
12122;SDS011;6125;59.628;17.852;2023-09-19T07:53:59;17.23;;;12.40;;
12122;SDS011;6125;59.628;17.852;2023-09-19T07:56:26;16.40;;;13.23;;
12122;SDS011;6125;59.628;17.852;2023-09-19T07:58:53;15.53;;;12.73;;
12122;SDS011;6125;59.628;17.852;2023-09-19T08:01:22;19.07;;;13.87;;
12122;SDS011;6125;59.628;17.852;2023-09-19T08:03:51;16.57;;;13.73;;
12122;SDS011;6125;59.628;17.852;2023-09-19T08:06:18;19.33;;;13.20;;
12122;SDS011;6125;59.628;17.852;2023-09-19T08:08:45;18.87;;;12.90;;
12122;SDS011;6125;59.628;17.852;2023-09-19T08:11:14;21.87;;;12.13;;
12122;SDS011;6125;59.628;17.852;2023-09-19T08:13:46;21.30;;;12.63;;
12122;SDS011;6125;59.628;17.852;2023-09-19T08:16:14;17.50;;;12.20;;
12122;SDS011;6125;59.628;17.852;2023-09-19T08:18:41;22.07;;;13.17;;
12122;SDS011;6125;59.628;17.852;2023-09-19T08:21:11;20.23;;;12.40;;
12122;SDS011;6125;59.628;17.852;2023-09-19T08:23:39;17.63;;;11.67;;
12122;SDS011;6125;59.628;17.852;2023-09-19T08:26:07;17.70;;;12.13;;
12122;SDS011;6125;59.628;17.852;2023-09-19T08:28:34;14.30;;;12.30;;
12122;SDS011;6125;59.628;17.852;2023-09-19T08:31:01;16.97;;;11.43;;
12122;SDS011;6125;59.628;17.852;2023-09-19T08:33:31;15.97;;;10.80;;
12122;SDS011;6125;59.628;17.852;2023-09-19T08:35:58;14.87;;;10.50;;
12122;SDS011;6125;59.628;17.852;2023-09-19T08:38:27;21.13;;;11.13;;
12122;SDS011;6125;59.628;17.852;2023-09-19T08:40:56;14.17;;;10.07;;
12122;SDS011;6125;59.628;17.852;2023-09-19T08:43:24;18.07;;;9.57;;
12122;SDS011;6125;59.628;17.852;2023-09-19T08:45:53;17.87;;;10.13;;
12122;SDS011;6125;59.628;17.852;2023-09-19T08:48:25;14.83;;;10.20;;
12122;SDS011;6125;59.628;17.852;2023-09-19T08:50:56;13.27;;;9.73;;
12122;SDS011;6125;59.628;17.852;2023-09-19T08:53:29;12.10;;;8.97;;
12122;SDS011;6125;59.628;17.852;2023-09-19T08:56:03;14.73;;;9.00;;
12122;SDS011;6125;59.628;17.852;2023-09-19T08:58:39;11.40;;;8.50;;
12122;SDS011;6125;59.628;17.852;2023-09-19T09:01:12;14.20;;;8.97;;
12122;SDS011;6125;59.628;17.852;2023-09-19T09:03:41;16.90;;;9.10;;
12122;SDS011;6125;59.628;17.852;2023-09-19T09:06:13;12.33;;;8.53;;
12122;SDS011;6125;59.628;17.852;2023-09-19T09:08:43;9.37;;;8.40;;
12122;SDS011;6125;59.628;17.852;2023-09-19T09:11:11;11.60;;;8.50;;
12122;SDS011;6125;59.628;17.852;2023-09-19T09:13:38;11.13;;;8.33;;
12122;SDS011;6125;59.628;17.852;2023-09-19T09:16:06;11.97;;;8.33;;
12122;SDS011;6125;59.628;17.852;2023-09-19T09:18:35;12.57;;;7.97;;
12122;SDS011;6125;59.628;17.852;2023-09-19T09:21:02;10.50;;;8.47;;
12122;SDS011;6125;59.628;17.852;2023-09-19T09:23:30;14.83;;;8.20;;
12122;SDS011;6125;59.628;17.852;2023-09-19T09:25:59;10.93;;;7.77;;
12122;SDS011;6125;59.628;17.852;2023-09-19T09:28:29;10.67;;;8.40;;
12122;SDS011;6125;59.628;17.852;2023-09-19T09:30:58;13.07;;;8.47;;
12122;SDS011;6125;59.628;17.852;2023-09-19T09:33:27;10.07;;;7.73;;
12122;SDS011;6125;59.628;17.852;2023-09-19T09:35:55;12.43;;;7.57;;
12122;SDS011;6125;59.628;17.852;2023-09-19T09:38:25;13.73;;;8.03;;
12122;SDS011;6125;59.628;17.852;2023-09-19T09:40:54;9.30;;;7.30;;
12122;SDS011;6125;59.628;17.852;2023-09-19T09:43:29;10.50;;;7.93;;
12122;SDS011;6125;59.628;17.852;2023-09-19T09:46:07;8.93;;;7.67;;
12122;SDS011;6125;59.628;17.852;2023-09-19T09:48:57;9.73;;;7.73;;
12122;SDS011;6125;59.628;17.852;2023-09-19T09:51:44;10.80;;;7.73;;
12122;SDS011;6125;59.628;17.852;2023-09-19T09:54:15;12.63;;;7.50;;
12122;SDS011;6125;59.628;17.852;2023-09-19T09:56:55;12.07;;;7.17;;
12122;SDS011;6125;59.628;17.852;2023-09-19T09:59:45;9.87;;;7.30;;
12122;SDS011;6125;59.628;17.852;2023-09-19T10:02:15;13.13;;;7.13;;
12122;SDS011;6125;59.628;17.852;2023-09-19T10:04:49;7.97;;;6.50;;
12122;SDS011;6125;59.628;17.852;2023-09-19T10:07:39;9.57;;;7.07;;
12122;SDS011;6125;59.628;17.852;2023-09-19T10:10:12;11.10;;;7.27;;
12122;SDS011;6125;59.628;17.852;2023-09-19T10:12:45;8.33;;;6.53;;
12122;SDS011;6125;59.628;17.852;2023-09-19T10:15:15;10.70;;;6.93;;
12122;SDS011;6125;59.628;17.852;2023-09-19T10:17:45;11.80;;;6.33;;
12122;SDS011;6125;59.628;17.852;2023-09-19T10:20:13;6.73;;;5.70;;
12122;SDS011;6125;59.628;17.852;2023-09-19T10:22:49;7.27;;;5.83;;
12122;SDS011;6125;59.628;17.852;2023-09-19T10:25:23;10.57;;;6.43;;
12122;SDS011;6125;59.628;17.852;2023-09-19T10:27:54;10.93;;;5.63;;
12122;SDS011;6125;59.628;17.852;2023-09-19T10:30:24;7.20;;;5.07;;
12122;SDS011;6125;59.628;17.852;2023-09-19T10:32:56;7.23;;;5.00;;
12122;SDS011;6125;59.628;17.852;2023-09-19T10:35:26;6.03;;;4.93;;
12122;SDS011;6125;59.628;17.852;2023-09-19T10:37:54;6.67;;;4.90;;
12122;SDS011;6125;59.628;17.852;2023-09-19T10:40:23;8.80;;;4.60;;
12122;SDS011;6125;59.628;17.852;2023-09-19T10:42:58;6.73;;;4.93;;
12122;SDS011;6125;59.628;17.852;2023-09-19T10:45:32;8.20;;;4.80;;
12122;SDS011;6125;59.628;17.852;2023-09-19T10:48:00;4.97;;;4.40;;
12122;SDS011;6125;59.628;17.852;2023-09-19T10:50:29;6.53;;;4.90;;
12122;SDS011;6125;59.628;17.852;2023-09-19T10:52:59;6.80;;;4.17;;
12122;SDS011;6125;59.628;17.852;2023-09-19T10:55:30;7.80;;;4.50;;
12122;SDS011;6125;59.628;17.852;2023-09-19T10:58:00;5.33;;;4.57;;
12122;SDS011;6125;59.628;17.852;2023-09-19T11:03:20;5.93;;;4.40;;
12122;SDS011;6125;59.628;17.852;2023-09-19T11:06:01;7.93;;;4.97;;
12122;SDS011;6125;59.628;17.852;2023-09-19T11:11:39;6.63;;;4.70;;
12122;SDS011;6125;59.628;17.852;2023-09-19T11:14:14;5.87;;;3.70;;
12122;SDS011;6125;59.628;17.852;2023-09-19T11:23:19;4.97;;;3.30;;
12122;SDS011;6125;59.628;17.852;2023-09-19T11:25:54;5.33;;;3.17;;
12122;SDS011;6125;59.628;17.852;2023-09-19T11:28:31;3.87;;;2.20;;
12122;SDS011;6125;59.628;17.852;2023-09-19T11:40:29;3.40;;;2.13;;
12122;SDS011;6125;59.628;17.852;2023-09-19T11:42:56;3.17;;;2.03;;
12122;SDS011;6125;59.628;17.852;2023-09-19T11:48:27;3.57;;;1.90;;
12122;SDS011;6125;59.628;17.852;2023-09-19T11:50:55;2.13;;;1.80;;
12122;SDS011;6125;59.628;17.852;2023-09-19T11:53:24;4.30;;;2.10;;
12122;SDS011;6125;59.628;17.852;2023-09-19T11:56:04;3.10;;;1.80;;
12122;SDS011;6125;59.628;17.852;2023-09-19T11:58:35;3.43;;;1.80;;
12122;SDS011;6125;59.628;17.852;2023-09-19T12:01:04;2.03;;;1.50;;
12122;SDS011;6125;59.628;17.852;2023-09-19T12:03:38;1.90;;;1.53;;
12122;SDS011;6125;59.628;17.852;2023-09-19T12:06:11;2.93;;;1.50;;
12122;SDS011;6125;59.628;17.852;2023-09-19T12:08:40;1.97;;;1.47;;
12122;SDS011;6125;59.628;17.852;2023-09-19T12:11:13;2.53;;;1.57;;
12122;SDS011;6125;59.628;17.852;2023-09-19T12:13:42;2.00;;;1.30;;
12122;SDS011;6125;59.628;17.852;2023-09-19T12:16:12;2.07;;;1.30;;
12122;SDS011;6125;59.628;17.852;2023-09-19T12:18:41;2.93;;;1.70;;
12122;SDS011;6125;59.628;17.852;2023-09-19T12:21:20;2.70;;;1.33;;
12122;SDS011;6125;59.628;17.852;2023-09-19T12:23:57;2.27;;;1.30;;
12122;SDS011;6125;59.628;17.852;2023-09-19T12:26:27;2.47;;;1.63;;
12122;SDS011;6125;59.628;17.852;2023-09-19T12:28:54;3.40;;;1.50;;
12122;SDS011;6125;59.628;17.852;2023-09-19T12:31:22;2.10;;;1.47;;
12122;SDS011;6125;59.628;17.852;2023-09-19T12:33:54;3.37;;;1.57;;
12122;SDS011;6125;59.628;17.852;2023-09-19T12:36:23;3.47;;;1.20;;
12122;SDS011;6125;59.628;17.852;2023-09-19T12:38:55;1.90;;;1.40;;
12122;SDS011;6125;59.628;17.852;2023-09-19T12:41:24;1.80;;;1.23;;
12122;SDS011;6125;59.628;17.852;2023-09-19T12:43:53;1.87;;;1.33;;
12122;SDS011;6125;59.628;17.852;2023-09-19T12:46:20;4.33;;;2.03;;
12122;SDS011;6125;59.628;17.852;2023-09-19T12:48:51;2.17;;;1.40;;
12122;SDS011;6125;59.628;17.852;2023-09-19T12:51:43;2.43;;;1.60;;
12122;SDS011;6125;59.628;17.852;2023-09-19T12:54:11;4.73;;;1.70;;
12122;SDS011;6125;59.628;17.852;2023-09-19T12:56:40;3.73;;;1.60;;
12122;SDS011;6125;59.628;17.852;2023-09-19T12:59:11;2.70;;;1.37;;
12122;SDS011;6125;59.628;17.852;2023-09-19T13:01:39;4.13;;;1.60;;
12122;SDS011;6125;59.628;17.852;2023-09-19T13:04:15;3.23;;;1.80;;
12122;SDS011;6125;59.628;17.852;2023-09-19T13:06:51;6.57;;;1.60;;
12122;SDS011;6125;59.628;17.852;2023-09-19T13:09:20;4.47;;;1.70;;
12122;SDS011;6125;59.628;17.852;2023-09-19T13:11:50;3.77;;;1.70;;
12122;SDS011;6125;59.628;17.852;2023-09-19T13:14:21;3.53;;;1.63;;
12122;SDS011;6125;59.628;17.852;2023-09-19T13:16:57;3.77;;;2.07;;
12122;SDS011;6125;59.628;17.852;2023-09-19T13:19:36;3.43;;;1.80;;
12122;SDS011;6125;59.628;17.852;2023-09-19T13:22:05;2.77;;;1.93;;
12122;SDS011;6125;59.628;17.852;2023-09-19T13:24:38;3.10;;;1.50;;
12122;SDS011;6125;59.628;17.852;2023-09-19T13:27:06;4.13;;;1.93;;
12122;SDS011;6125;59.628;17.852;2023-09-19T13:29:36;4.03;;;1.87;;
12122;SDS011;6125;59.628;17.852;2023-09-19T13:32:04;4.40;;;1.70;;
12122;SDS011;6125;59.628;17.852;2023-09-19T13:34:31;4.67;;;1.73;;
12122;SDS011;6125;59.628;17.852;2023-09-19T13:36:58;3.30;;;1.80;;
12122;SDS011;6125;59.628;17.852;2023-09-19T13:39:26;8.27;;;1.80;;
12122;SDS011;6125;59.628;17.852;2023-09-19T13:41:53;2.17;;;1.50;;
12122;SDS011;6125;59.628;17.852;2023-09-19T13:44:20;3.73;;;1.60;;
12122;SDS011;6125;59.628;17.852;2023-09-19T13:46:49;3.53;;;1.80;;
12122;SDS011;6125;59.628;17.852;2023-09-19T13:49:16;3.23;;;1.40;;
12122;SDS011;6125;59.628;17.852;2023-09-19T13:51:44;4.20;;;1.60;;
12122;SDS011;6125;59.628;17.852;2023-09-19T13:54:11;2.97;;;1.70;;
12122;SDS011;6125;59.628;17.852;2023-09-19T13:56:39;3.53;;;1.77;;
12122;SDS011;6125;59.628;17.852;2023-09-19T13:59:06;6.03;;;1.60;;
12122;SDS011;6125;59.628;17.852;2023-09-19T14:01:33;3.37;;;1.67;;
12122;SDS011;6125;59.628;17.852;2023-09-19T14:04:02;4.23;;;1.67;;
12122;SDS011;6125;59.628;17.852;2023-09-19T14:06:29;3.17;;;1.50;;
12122;SDS011;6125;59.628;17.852;2023-09-19T14:08:56;1.87;;;1.40;;
12122;SDS011;6125;59.628;17.852;2023-09-19T14:11:23;3.23;;;1.30;;
12122;SDS011;6125;59.628;17.852;2023-09-19T14:13:51;2.87;;;1.73;;
12122;SDS011;6125;59.628;17.852;2023-09-19T14:16:18;3.03;;;1.37;;
12122;SDS011;6125;59.628;17.852;2023-09-19T14:18:47;2.30;;;1.30;;
12122;SDS011;6125;59.628;17.852;2023-09-19T14:21:16;2.50;;;1.60;;
12122;SDS011;6125;59.628;17.852;2023-09-19T14:23:44;3.13;;;1.30;;
12122;SDS011;6125;59.628;17.852;2023-09-19T14:26:11;3.60;;;1.40;;
12122;SDS011;6125;59.628;17.852;2023-09-19T14:28:38;2.00;;;1.37;;
12122;SDS011;6125;59.628;17.852;2023-09-19T14:31:06;4.00;;;1.23;;
12122;SDS011;6125;59.628;17.852;2023-09-19T14:33:33;4.40;;;1.30;;
12122;SDS011;6125;59.628;17.852;2023-09-19T14:36:04;2.40;;;1.50;;
12122;SDS011;6125;59.628;17.852;2023-09-19T14:38:35;3.27;;;1.30;;
12122;SDS011;6125;59.628;17.852;2023-09-19T14:41:03;2.43;;;1.57;;
12122;SDS011;6125;59.628;17.852;2023-09-19T14:43:31;3.03;;;1.50;;
12122;SDS011;6125;59.628;17.852;2023-09-19T14:46:02;5.23;;;1.40;;
12122;SDS011;6125;59.628;17.852;2023-09-19T14:48:30;2.30;;;1.30;;
12122;SDS011;6125;59.628;17.852;2023-09-19T14:51:01;4.93;;;1.70;;
12122;SDS011;6125;59.628;17.852;2023-09-19T14:53:29;2.57;;;1.47;;
12122;SDS011;6125;59.628;17.852;2023-09-19T14:55:59;2.50;;;1.37;;
12122;SDS011;6125;59.628;17.852;2023-09-19T14:58:28;3.93;;;1.37;;
12122;SDS011;6125;59.628;17.852;2023-09-19T15:01:01;2.60;;;1.53;;
12122;SDS011;6125;59.628;17.852;2023-09-19T15:03:31;2.77;;;1.30;;
12122;SDS011;6125;59.628;17.852;2023-09-19T15:05:59;2.20;;;1.13;;
12122;SDS011;6125;59.628;17.852;2023-09-19T15:08:27;3.93;;;1.67;;
12122;SDS011;6125;59.628;17.852;2023-09-19T15:10:54;2.77;;;1.67;;
12122;SDS011;6125;59.628;17.852;2023-09-19T15:13:24;2.63;;;1.13;;